Time;durP1;ratioP1;P1;durP2;ratioP2;P2;SDS_P1;SDS_P2;PMS_P1;PMS_P2;Temp;Humidity;BMP_temperature;BMP_pressure;BME280_temperature;BME280_humidity;BME280_pressure;Samples;Min_cycle;Max_cycle;Signal;HPM_P1;HPM_P2
2023/06/17 00:00:07;;;;;;;8.68;4.43;;;;;;;11.73;86.49;101516.00;1031602;28;20512;-43
2023/06/17 00:00:39;;;;;;;6.90;4.68;;;;;;;11.68;86.37;101519.31;1031660;28;20449;-55
2023/06/17 00:01:12;;;;;;;7.30;4.55;;;;;;;11.68;86.64;101521.16;1031979;28;20042;-55
2023/06/17 00:01:44;;;;;;;6.85;5.38;;;;;;;11.71;86.79;101520.75;1031819;28;20388;-54
2023/06/17 00:02:15;;;;;;;7.30;4.93;;;;;;;11.70;86.74;101516.44;1031440;28;20050;-54
2023/06/17 00:02:47;;;;;;;7.43;5.00;;;;;;;11.66;86.58;101523.22;1031323;28;20447;-54
2023/06/17 00:03:19;;;;;;;7.32;4.10;;;;;;;11.65;86.72;101519.72;1031632;28;20057;-53
2023/06/17 00:03:50;;;;;;;11.00;4.97;;;;;;;11.67;86.75;101517.66;1031263;28;20120;-54
2023/06/17 00:04:22;;;;;;;9.32;4.45;;;;;;;11.64;87.02;101518.09;1031539;28;20053;-54
2023/06/17 00:04:54;;;;;;;5.97;4.43;;;;;;;11.63;86.91;101523.63;1031967;28;20035;-54
2023/06/17 00:05:26;;;;;;;5.82;4.47;;;;;;;11.72;86.70;101517.88;1031465;28;20045;-53
2023/06/17 00:05:58;;;;;;;10.13;5.25;;;;;;;11.74;86.46;101514.97;1031592;28;20038;-53
2023/06/17 00:06:29;;;;;;;5.80;4.63;;;;;;;11.69;86.81;101520.13;1031872;28;20053;-55
2023/06/17 00:07:01;;;;;;;4.85;4.43;;;;;;;11.72;87.00;101514.38;1031471;28;20564;-53
2023/06/17 00:07:32;;;;;;;5.28;4.32;;;;;;;11.70;86.79;101521.78;1031431;28;20042;-55
2023/06/17 00:08:04;;;;;;;6.32;4.78;;;;;;;11.77;86.63;101514.56;1031567;28;20066;-44
2023/06/17 00:08:37;;;;;;;5.13;4.43;;;;;;;11.75;86.83;101525.44;1024917;28;20652;-43
2023/06/17 00:09:08;;;;;;;7.15;5.05;;;;;;;11.81;86.40;101513.19;1027918;28;20047;-43
2023/06/17 00:09:44;;;;;;;11.23;5.50;;;;;;;11.85;86.21;101516.25;1031322;28;20050;-43
2023/06/17 00:10:15;;;;;;;5.47;4.97;;;;;;;11.87;85.65;101511.53;1031654;28;20074;-44
2023/06/17 00:10:47;;;;;;;8.85;4.53;;;;;;;11.87;85.71;101512.34;1029483;28;20046;-43
2023/06/17 00:11:19;;;;;;;7.68;5.32;;;;;;;11.84;85.75;101514.63;1031514;28;20042;-43
2023/06/17 00:11:51;;;;;;;5.72;5.07;;;;;;;11.80;85.77;101514.22;1031462;28;20046;-43
2023/06/17 00:12:24;;;;;;;9.18;5.47;;;;;;;11.74;86.31;101515.81;1029389;28;20094;-44
2023/06/17 00:12:58;;;;;;;8.75;5.07;;;;;;;11.94;85.97;101517.66;1031743;28;20042;-43
2023/06/17 00:13:30;;;;;;;6.45;4.80;;;;;;;12.06;84.69;101514.16;1031640;28;20131;-43
2023/06/17 00:14:02;;;;;;;6.75;4.70;;;;;;;12.05;84.22;101520.53;1031565;28;20039;-43
2023/06/17 00:14:34;;;;;;;4.90;4.40;;;;;;;12.05;84.52;101506.31;1031164;28;20081;-43
2023/06/17 00:15:06;;;;;;;4.80;4.40;;;;;;;12.12;83.59;101509.81;1031305;28;20046;-43
2023/06/17 00:15:37;;;;;;;5.90;4.57;;;;;;;12.16;83.13;101507.56;1031701;28;20511;-54
2023/06/17 00:16:12;;;;;;;9.27;4.57;;;;;;;12.20;82.89;101514.09;1029350;28;20038;-52
2023/06/17 00:16:44;;;;;;;5.65;4.40;;;;;;;12.17;82.94;101503.84;1031125;28;20053;-52
2023/06/17 00:17:15;;;;;;;5.00;4.53;;;;;;;12.18;82.54;101505.50;1031623;28;20050;-54
2023/06/17 00:17:50;;;;;;;4.85;4.38;;;;;;;12.12;82.50;101503.66;1031707;28;20050;-54
2023/06/17 00:18:25;;;;;;;11.05;4.75;;;;;;;12.10;83.02;101505.72;1031501;28;20069;-53
2023/06/17 00:18:57;;;;;;;5.88;4.93;;;;;;;12.13;82.48;101505.31;1031076;28;20168;-55
2023/06/17 00:19:29;;;;;;;4.72;4.32;;;;;;;12.15;82.64;101505.91;1031223;28;20089;-53
2023/06/17 00:20:10;;;;;;;7.88;4.80;;;;;;;12.16;82.93;101510.22;1027586;28;20058;-54
2023/06/17 00:20:41;;;;;;;;;;;;;;;12.14;83.42;101506.94;1027533;28;20050;-51
2023/06/17 00:21:13;;;;;;;;;;;;;;;12.06;83.64;101508.00;1027990;28;20323;-50
2023/06/17 00:21:49;;;;;;;5.20;4.53;;;;;;;11.94;83.16;101507.81;1029175;28;19922;-54
2023/06/17 00:22:24;;;;;;;6.93;4.55;;;;;;;11.89;83.63;101504.94;1031589;28;20173;-51
2023/06/17 00:22:56;;;;;;;5.07;4.28;;;;;;;11.82;84.22;101506.00;1031627;28;20463;-44
2023/06/17 00:23:27;;;;;;;7.80;5.07;;;;;;;11.71;84.85;101502.88;1031709;28;20522;-44
2023/06/17 00:23:59;;;;;;;9.57;4.45;;;;;;;11.72;85.15;101509.03;1031679;28;20047;-44
2023/06/17 00:24:31;;;;;;;7.43;4.53;;;;;;;11.69;85.12;101509.44;1031643;28;20500;-42
2023/06/17 00:25:03;;;;;;;8.70;5.72;;;;;;;11.63;85.68;101504.94;1031608;28;20291;-43
2023/06/17 00:25:34;;;;;;;4.68;4.28;;;;;;;11.62;85.87;101508.66;1031855;28;20141;-44
2023/06/17 00:26:06;;;;;;;4.85;4.35;;;;;;;11.72;85.73;101509.03;1031585;28;20046;-44
2023/06/17 00:26:38;;;;;;;6.72;4.30;;;;;;;11.71;85.16;101508.22;1031586;28;20403;-43
2023/06/17 00:27:10;;;;;;;8.07;5.68;;;;;;;11.73;85.40;101505.34;1031704;28;20497;-44
2023/06/17 00:27:42;;;;;;;7.60;4.85;;;;;;;11.71;85.48;101512.72;1031686;28;20042;-43
2023/06/17 00:28:13;;;;;;;8.88;4.95;;;;;;;11.61;85.65;101507.81;1031620;28;20129;-43
2023/06/17 00:28:45;;;;;;;9.70;5.13;;;;;;;11.52;86.53;101508.25;1031326;28;20096;-44
2023/06/17 00:29:17;;;;;;;14.20;5.45;;;;;;;11.45;86.77;101502.91;1031385;28;20066;-43
2023/06/17 00:29:48;;;;;;;17.83;5.80;;;;;;;11.51;87.03;101501.28;1031023;28;20046;-43
2023/06/17 00:30:20;;;;;;;12.32;5.28;;;;;;;11.66;86.92;101504.53;1031556;28;20054;-43
2023/06/17 00:30:52;;;;;;;21.92;5.72;;;;;;;11.76;86.97;101503.06;1024794;28;20062;-45
2023/06/17 00:31:26;;;;;;;39.25;7.45;;;;;;;11.86;86.91;101501.88;1026816;28;20177;-44
2023/06/17 00:31:58;;;;;;;44.25;7.40;;;;;;;11.94;86.36;101502.47;1027249;28;20039;-44
2023/06/17 00:32:32;;;;;;;25.92;6.88;;;;;;;11.97;86.48;101496.69;1028420;28;20588;-44
2023/06/17 00:33:04;;;;;;;15.50;5.88;;;;;;;12.05;86.36;101501.00;1031157;28;20646;-43
2023/06/17 00:33:37;;;;;;;10.93;6.22;;;;;;;12.11;86.94;101496.69;1027163;28;20057;-44
2023/06/17 00:34:08;;;;;;;10.98;5.80;;;;;;;12.10;87.55;101492.38;1027341;28;20182;-43
2023/06/17 00:34:40;;;;;;;12.00;5.63;;;;;;;12.18;87.67;101498.28;1027905;28;20039;-44
2023/06/17 00:35:12;;;;;;;6.82;5.90;;;;;;;12.31;87.80;101497.41;1031393;28;20551;-43
2023/06/17 00:35:43;;;;;;;10.27;5.03;;;;;;;12.33;86.91;101500.72;1031582;28;20050;-43
2023/06/17 00:36:15;;;;;;;11.25;5.35;;;;;;;12.30;86.65;101493.09;1031371;28;20052;-43
2023/06/17 00:36:46;;;;;;;10.20;5.25;;;;;;;12.21;85.91;101491.72;1031358;28;20058;-43
2023/06/17 00:37:18;;;;;;;12.60;5.70;;;;;;;12.16;86.23;101488.84;1027284;28;20046;-44
2023/06/17 00:37:50;;;;;;;13.32;5.20;;;;;;;12.07;86.25;101497.09;1027846;28;20125;-44
2023/06/17 00:38:21;;;;;;;8.65;5.10;;;;;;;11.99;86.66;101491.97;1027041;28;20054;-51
2023/06/17 00:38:53;;;;;;;13.55;6.30;;;;;;;11.92;86.32;101493.84;1023642;28;20130;-54
2023/06/17 00:39:25;;;;;;;8.60;5.20;;;;;;;11.74;87.22;101490.97;1027246;28;20405;-55
2023/06/17 00:39:56;;;;;;;12.45;6.70;;;;;;;11.70;87.93;101495.06;1023676;28;20054;-55
2023/06/17 00:40:28;;;;;;;10.25;5.90;;;;;;;11.61;87.93;101496.34;1022876;28;20193;-54
2023/06/17 00:41:00;;;;;;;9.35;5.32;;;;;;;11.58;88.77;101492.22;1026692;28;20039;-53
2023/06/17 00:41:31;;;;;;;11.43;6.53;;;;;;;11.58;88.95;101491.41;1031288;28;20042;-54
2023/06/17 00:42:03;;;;;;;14.82;5.63;;;;;;;11.63;89.27;101488.94;1035183;28;20101;-54
2023/06/17 00:42:36;;;;;;;10.00;6.13;;;;;;;11.74;88.38;101496.31;1035068;28;20073;-54
2023/06/17 00:43:07;;;;;;;8.90;5.72;;;;;;;11.72;88.27;101495.69;1035827;28;20045;-54
2023/06/17 00:43:39;;;;;;;7.15;5.47;;;;;;;11.76;87.60;101492.41;1035276;28;20046;-54
2023/06/17 00:44:11;;;;;;;13.07;4.75;;;;;;;11.78;87.38;101492.25;1028489;28;20042;-55
2023/06/17 00:44:43;;;;;;;9.02;5.22;;;;;;;11.73;86.98;101490.16;1027283;28;20039;-55
2023/06/17 00:45:14;;;;;;;8.07;5.15;;;;;;;11.69;87.66;101488.09;1027338;28;20043;-54
2023/06/17 00:45:46;;;;;;;9.45;5.43;;;;;;;11.57;88.31;101495.09;1030789;28;20042;-55
2023/06/17 00:46:37;;;;;;;11.55;5.60;;;;;;;11.74;89.55;101494.44;1030374;28;20104;-55
2023/06/17 00:47:10;;;;;;;11.35;5.57;;;;;;;11.66;90.18;101493.84;1031052;28;20045;-53
2023/06/17 00:47:43;;;;;;;8.43;5.03;;;;;;;11.77;90.11;101490.53;1026581;28;20039;-54
2023/06/17 00:48:14;;;;;;;13.38;5.68;;;;;;;11.88;90.12;101489.13;1023166;28;20086;-56
2023/06/17 00:48:46;;;;;;;14.02;6.20;;;;;;;11.79;90.16;101499.22;1019558;28;20506;-54
2023/06/17 00:49:18;;;;;;;14.95;5.55;;;;;;;11.82;90.17;101493.47;1019346;29;20051;-54
2023/06/17 00:49:50;;;;;;;17.92;5.63;;;;;;;11.81;90.69;101491.81;1019484;28;20348;-54
2023/06/17 00:50:22;;;;;;;13.57;6.75;;;;;;;11.80;90.40;101494.72;1023297;28;20047;-54
2023/06/17 00:51:01;;;;;;;9.40;6.38;;;;;;;11.76;90.41;101494.25;1026574;28;20047;-53
2023/06/17 00:51:33;;;;;;;20.25;6.65;;;;;;;11.70;90.64;101490.56;1023868;28;20040;-55
2023/06/17 00:52:09;;;;;;;22.38;6.47;;;;;;;11.67;90.43;101490.16;1024647;28;20075;-55
2023/06/17 00:53:01;;;;;;;6.28;5.68;;;;;;;11.59;90.47;101493.88;1027056;28;20062;-53
2023/06/17 00:53:33;;;;;;;11.25;5.07;;;;;;;11.48;91.11;101491.00;1031070;28;20046;-55
2023/06/17 00:54:07;;;;;;;9.00;5.82;;;;;;;11.45;91.21;101493.03;1031064;28;20539;-55
2023/06/17 00:54:40;;;;;;;6.00;5.32;;;;;;;11.37;91.56;101495.09;1030753;28;20042;-54
2023/06/17 00:55:12;;;;;;;6.38;5.40;;;;;;;11.35;92.15;101487.31;1031251;28;20132;-55
2023/06/17 00:55:44;;;;;;;13.50;5.30;;;;;;;11.35;92.57;101497.97;1031360;28;20126;-54
2023/06/17 00:56:17;;;;;;;15.85;6.35;;;;;;;11.36;93.27;101496.94;1031793;28;20052;-55
2023/06/17 00:56:52;;;;;;;11.70;5.97;;;;;;;11.41;92.77;101486.47;1031295;28;20513;-55
2023/06/17 00:57:24;;;;;;;8.85;5.50;;;;;;;11.48;91.64;101485.66;1031039;28;20038;-54
2023/06/17 00:57:57;;;;;;;7.35;6.10;;;;;;;11.49;91.28;101485.44;1031259;28;20039;-54
2023/06/17 00:58:28;;;;;;;9.82;5.93;;;;;;;11.44;91.52;101485.25;1032507;28;20030;-55
2023/06/17 00:59:01;;;;;;;11.80;5.40;;;;;;;11.31;92.13;101496.75;1035287;28;20046;-54
2023/06/17 00:59:36;;;;;;;7.25;5.72;;;;;;;11.32;92.38;101487.72;1031101;28;20393;-54
2023/06/17 01:00:11;;;;;;;7.32;5.60;;;;;;;11.27;92.97;101490.19;1031152;28;20117;-55
2023/06/17 01:00:44;;;;;;;13.23;6.50;;;;;;;11.13;93.16;101483.19;1031276;28;20120;-55
2023/06/17 01:01:17;;;;;;;24.42;7.95;;;;;;;11.12;94.19;101494.88;1031385;28;20174;-54
2023/06/17 01:01:49;;;;;;;28.23;8.25;;;;;;;11.16;94.35;101490.78;1031366;28;20042;-53
2023/06/17 01:02:25;;;;;;;28.83;6.97;;;;;;;11.08;94.52;101491.00;1031383;28;20046;-55
2023/06/17 01:02:58;;;;;;;10.32;5.90;;;;;;;11.06;94.93;101487.72;1031431;28;20050;-54
2023/06/17 01:03:30;;;;;;;10.50;5.70;;;;;;;11.07;95.01;101489.34;1028111;28;20058;-55
2023/06/17 01:04:04;;;;;;;7.63;6.05;;;;;;;11.03;95.35;101488.13;1028144;28;20541;-55
2023/06/17 01:04:42;;;;;;;8.80;5.30;;;;;;;11.03;95.06;101488.13;1028880;28;20508;-55
2023/06/17 01:05:16;;;;;;;7.18;6.25;;;;;;;10.99;94.96;101489.56;1029409;28;20119;-55
2023/06/17 01:05:51;;;;;;;15.48;6.55;;;;;;;11.02;95.31;101483.81;1031796;28;20038;-54
2023/06/17 01:06:33;;;;;;;7.13;6.22;;;;;;;11.02;95.24;101483.81;1031580;28;20047;-54
2023/06/17 01:07:16;;;;;;;10.20;5.75;;;;;;;10.97;94.91;101483.59;1030363;28;20493;-54
2023/06/17 01:08:10;;;;;;;8.52;5.90;;;;;;;11.05;94.84;101480.72;1027240;28;20050;-53
2023/06/17 01:08:45;;;;;;;7.38;5.32;;;;;;;11.18;93.58;101480.72;1028535;28;20046;-54
2023/06/17 01:09:20;;;;;;;8.55;5.68;;;;;;;11.19;92.54;101482.38;1027792;28;20043;-55
2023/06/17 01:10:02;;;;;;;6.95;6.13;;;;;;;11.21;92.57;101472.31;1031861;28;20050;-55
2023/06/17 01:10:42;;;;;;;6.40;5.88;;;;;;;11.15;92.66;101473.16;1032099;28;20050;-54
2023/06/17 01:11:14;;;;;;;7.75;5.35;;;;;;;11.23;92.41;101472.97;1023651;28;20035;-54
2023/06/17 01:11:47;;;;;;;10.68;6.50;;;;;;;11.24;92.60;101471.94;1020109;29;20453;-54
2023/06/17 01:12:19;;;;;;;8.45;5.63;;;;;;;11.24;92.83;101479.94;1020262;29;20050;-54
2023/06/17 01:12:52;;;;;;;9.27;5.63;;;;;;;11.22;92.94;101473.97;1022796;28;20119;-54
2023/06/17 01:13:26;;;;;;;6.45;5.55;;;;;;;11.17;92.74;101483.59;1031962;28;20320;-54
2023/06/17 01:13:59;;;;;;;7.40;6.15;;;;;;;11.15;93.44;101476.63;1031951;28;20057;-53
2023/06/17 01:14:32;;;;;;;10.75;5.93;;;;;;;11.17;93.74;101479.09;1025172;28;20054;-52
2023/06/17 01:15:08;;;;;;;6.00;5.50;;;;;;;11.11;94.11;101480.72;1027973;28;20042;-53
2023/06/17 01:15:40;;;;;;;6.72;6.05;;;;;;;10.97;94.36;101475.59;1027846;28;20525;-52
2023/06/17 01:16:13;;;;;;;9.73;5.82;;;;;;;10.84;94.38;101481.72;1029250;28;20404;-55
2023/06/17 01:16:50;;;;;;;13.98;7.38;;;;;;;10.82;95.71;101476.59;1025148;28;20303;-53
2023/06/17 01:17:22;;;;;;;7.07;6.45;;;;;;;10.81;96.15;101476.78;1028095;28;20298;-55
2023/06/17 01:17:55;;;;;;;8.05;5.60;;;;;;;10.76;96.52;101477.41;1027924;28;20405;-54
2023/06/17 01:18:28;;;;;;;7.57;6.05;;;;;;;10.76;97.11;101476.59;1028929;28;20303;-55
2023/06/17 01:18:59;;;;;;;8.23;6.28;;;;;;;10.74;97.93;101478.63;1031920;28;20100;-54
2023/06/17 01:19:35;;;;;;;7.93;5.78;;;;;;;10.78;98.12;101480.69;1032192;28;20312;-55
2023/06/17 01:20:07;;;;;;;6.20;5.60;;;;;;;10.85;98.28;101475.38;1031932;28;20492;-53
2023/06/17 01:20:40;;;;;;;7.20;5.28;;;;;;;10.93;97.99;101482.34;1027897;28;20720;-53
2023/06/17 01:21:12;;;;;;;6.65;6.03;;;;;;;10.92;97.98;101476.19;1024540;28;20298;-54
2023/06/17 01:21:51;;;;;;;9.20;5.90;;;;;;;11.02;97.59;101475.81;1024668;28;20813;-54
2023/06/17 01:22:24;;;;;;;13.52;6.22;;;;;;;11.06;97.23;101477.88;1029762;28;20286;-54
2023/06/17 01:22:56;;;;;;;13.27;7.32;;;;;;;11.12;97.22;101477.03;1029640;28;20405;-52
2023/06/17 01:23:34;;;;;;;7.18;6.00;;;;;;;11.12;96.58;101473.56;1032528;28;20050;-55
2023/06/17 01:24:07;;;;;;;8.45;5.70;;;;;;;11.01;96.39;101474.16;1031465;28;20801;-53
2023/06/17 01:24:40;;;;;;;11.13;6.57;;;;;;;10.97;96.24;101468.44;1027845;28;20453;-53
2023/06/17 01:25:13;;;;;;;8.07;6.28;;;;;;;10.97;96.47;101475.59;1029787;28;20305;-53
2023/06/17 01:25:45;;;;;;;8.50;5.90;;;;;;;10.90;96.00;101477.41;1027906;28;20293;-54
2023/06/17 01:26:19;;;;;;;13.00;7.60;;;;;;;10.83;96.49;101478.22;1028971;28;20393;-53
2023/06/17 01:26:56;;;;;;;17.00;6.32;;;;;;;10.86;96.43;101476.19;1031935;28;20050;-51
2023/06/17 01:27:29;;;;;;;8.35;7.47;;;;;;;10.87;96.79;101472.50;1029379;28;20046;-54
2023/06/17 01:28:13;;;;;;;6.13;5.57;;;;;;;10.80;97.05;101473.31;1032250;28;20038;-53
2023/06/17 01:28:45;;;;;;;8.32;6.95;;;;;;;10.77;97.47;101484.38;1031634;28;20535;-55
2023/06/17 01:29:17;;;;;;;9.45;6.43;;;;;;;10.73;97.06;101479.66;1029891;28;20328;-53
2023/06/17 01:29:48;;;;;;;8.70;6.95;;;;;;;10.64;97.82;101478.19;1028117;28;20050;-54
2023/06/17 01:30:20;;;;;;;7.00;6.30;;;;;;;10.67;98.77;101483.09;1027717;28;20043;-54
2023/06/17 01:30:56;;;;;;;14.18;6.47;;;;;;;10.72;98.98;101481.50;1028357;28;20035;-54
2023/06/17 01:31:29;;;;;;;7.75;7.05;;;;;;;10.75;99.65;101480.28;1032012;28;20050;-54
2023/06/17 01:32:02;;;;;;;10.13;6.70;;;;;;;10.77;98.68;101479.03;1032415;28;20297;-54
2023/06/17 01:32:34;;;;;;;10.40;6.43;;;;;;;10.82;98.15;101486.44;1031960;28;20117;-54
2023/06/17 01:33:05;;;;;;;8.23;7.00;;;;;;;10.81;97.96;101480.28;1031779;28;20054;-54
2023/06/17 01:33:38;;;;;;;9.07;6.90;;;;;;;10.77;97.78;101479.03;1032035;28;20488;-55
2023/06/17 01:34:10;;;;;;;8.10;7.30;;;;;;;10.79;98.30;101477.00;1028747;28;20437;-54
2023/06/17 01:34:48;;;;;;;7.88;7.07;;;;;;;10.75;97.81;101478.44;1031169;28;20034;-55
2023/06/17 01:35:20;;;;;;;7.05;6.43;;;;;;;10.70;98.40;101478.22;1031913;28;20061;-53
2023/06/17 01:36:00;;;;;;;9.75;6.40;;;;;;;10.67;98.54;101473.25;1027674;28;20043;-54
2023/06/17 01:36:34;;;;;;;8.95;6.55;;;;;;;10.73;98.32;101472.47;1032712;28;20058;-54
2023/06/17 01:37:10;;;;;;;7.25;6.60;;;;;;;10.72;98.64;101478.84;1031944;28;20057;-53
2023/06/17 01:37:49;;;;;;;8.18;7.25;;;;;;;10.71;98.45;101479.03;1034208;28;20046;-54
2023/06/17 01:38:27;;;;;;;8.63;7.03;;;;;;;10.68;98.97;101477.59;1031850;28;20050;-54
2023/06/17 01:39:03;;;;;;;8.05;6.53;;;;;;;10.66;98.72;101468.97;1034860;28;20045;-50
2023/06/17 01:39:40;;;;;;;7.95;7.15;;;;;;;10.61;98.69;101468.75;1031799;28;20144;-54
2023/06/17 01:40:13;;;;;;;6.97;6.28;;;;;;;10.56;99.33;101471.19;1026155;28;20042;-54
2023/06/17 01:40:46;;;;;;;8.00;7.20;;;;;;;10.53;99.68;101472.41;1023833;28;20051;-54
2023/06/17 01:41:21;;;;;;;10.60;7.75;;;;;;;10.53;99.92;101471.59;1028919;28;20173;-55
2023/06/17 01:41:55;;;;;;;8.15;7.30;;;;;;;10.54;100.00;101470.56;1028490;28;20041;-54
2023/06/17 01:42:34;;;;;;;6.82;5.85;;;;;;;10.51;100.00;101469.13;1021468;28;20035;-53
2023/06/17 01:43:07;;;;;;;8.70;7.18;;;;;;;10.48;100.00;101479.38;1017736;29;20103;-55
2023/06/17 01:43:40;;;;;;;8.90;8.02;;;;;;;10.42;100.00;101480.19;1021910;29;20534;-54
2023/06/17 01:44:12;;;;;;;7.47;6.72;;;;;;;10.51;100.00;101481.63;1025635;28;20126;-55
2023/06/17 01:44:44;;;;;;;7.88;7.05;;;;;;;10.62;100.00;101481.03;1024302;28;20366;-54
2023/06/17 01:45:18;;;;;;;8.23;7.18;;;;;;;10.75;100.00;101481.09;1019887;29;20054;-53
2023/06/17 01:45:50;;;;;;;7.82;7.05;;;;;;;10.86;100.00;101477.00;1024834;28;20465;-53
2023/06/17 01:46:24;;;;;;;17.70;8.35;;;;;;;10.96;99.75;101487.28;1028925;28;20078;-53
2023/06/17 01:46:56;;;;;;;8.82;7.80;;;;;;;11.09;99.45;101481.97;1029290;28;20039;-55
2023/06/17 01:47:28;;;;;;;11.68;7.85;;;;;;;11.14;99.30;101485.66;1026743;28;20380;-54
2023/06/17 01:48:00;;;;;;;9.45;6.60;;;;;;;11.23;99.16;101472.97;1020908;28;20047;-54
2023/06/17 01:48:32;;;;;;;8.02;7.22;;;;;;;11.30;98.79;101478.28;1024669;28;20172;-54
2023/06/17 01:49:03;;;;;;;11.55;7.72;;;;;;;11.39;98.47;101472.53;1028183;28;20306;-54
2023/06/17 01:49:37;;;;;;;13.40;7.85;;;;;;;11.45;98.11;101476.22;1032153;28;20043;-55
2023/06/17 01:50:09;;;;;;;8.90;7.40;;;;;;;11.50;97.13;101472.94;1031933;28;20417;-55
2023/06/17 01:50:41;;;;;;;22.33;7.68;;;;;;;11.46;96.29;101478.69;1027630;28;20054;-53
2023/06/17 01:51:12;;;;;;;8.38;7.50;;;;;;;11.38;96.37;101476.22;1027868;28;20528;-54
2023/06/17 01:51:44;;;;;;;8.68;6.75;;;;;;;11.28;96.15;101475.81;1028610;28;20117;-54
2023/06/17 01:52:16;;;;;;;12.07;8.25;;;;;;;11.25;96.79;101470.91;1028142;28;20047;-54
2023/06/17 01:52:47;;;;;;;11.13;8.70;;;;;;;11.20;96.59;101478.69;1027756;28;20615;-54
2023/06/17 01:53:19;;;;;;;7.32;6.65;;;;;;;11.15;96.02;101478.47;1028079;28;20043;-54
2023/06/17 01:53:51;;;;;;;8.57;7.47;;;;;;;11.03;96.63;101472.13;1028312;28;20154;-54
2023/06/17 01:54:23;;;;;;;9.77;7.40;;;;;;;10.94;96.76;101475.97;1031787;28;20065;-54
2023/06/17 01:54:55;;;;;;;9.05;7.53;;;;;;;10.91;97.40;101469.22;1032115;28;20378;-55
2023/06/17 01:55:28;;;;;;;8.25;7.00;;;;;;;10.89;98.22;101465.13;1027428;28;20043;-54
2023/06/17 01:56:00;;;;;;;11.20;7.68;;;;;;;10.91;98.00;101479.06;1027893;28;20045;-53
2023/06/17 01:56:31;;;;;;;7.70;7.07;;;;;;;10.86;98.00;101476.19;1027108;28;20053;-53
2023/06/17 01:57:03;;;;;;;9.07;6.97;;;;;;;10.75;97.73;101478.44;1032365;28;20559;-55
2023/06/17 01:57:36;;;;;;;7.95;7.20;;;;;;;10.82;97.52;101473.09;1031773;28;20039;-54
2023/06/17 01:58:08;;;;;;;12.75;7.97;;;;;;;10.87;97.71;101475.16;1032340;28;20120;-53
2023/06/17 01:58:40;;;;;;;8.95;8.05;;;;;;;10.78;97.17;101479.88;1031987;28;20038;-55
2023/06/17 01:59:11;;;;;;;7.97;7.20;;;;;;;10.76;97.79;101472.06;1027773;28;20129;-54
2023/06/17 01:59:43;;;;;;;10.27;8.25;;;;;;;10.81;97.83;101480.28;1028294;28;20042;-53
2023/06/17 02:00:15;;;;;;;8.52;7.55;;;;;;;10.84;97.85;101484.38;1032211;28;20046;-54
2023/06/17 02:00:55;;;;;;;8.57;7.32;;;;;;;10.72;97.95;101478.00;1035946;28;20042;-55
2023/06/17 02:01:27;;;;;;;8.88;7.97;;;;;;;10.73;98.15;101483.16;1032501;28;20053;-54
2023/06/17 02:01:58;;;;;;;9.68;7.47;;;;;;;10.67;98.05;101481.25;1032260;28;20050;-54
2023/06/17 02:02:30;;;;;;;6.75;6.15;;;;;;;10.62;98.05;101478.38;1032039;28;20046;-54
2023/06/17 02:03:03;;;;;;;8.48;7.55;;;;;;;10.60;98.10;101493.75;1031406;28;20141;-53
2023/06/17 02:03:35;;;;;;;7.43;6.72;;;;;;;10.55;98.33;101484.72;1027894;28;20046;-54
2023/06/17 02:04:07;;;;;;;9.27;7.30;;;;;;;10.50;98.74;101485.31;1027851;28;20043;-53
2023/06/17 02:04:41;;;;;;;7.43;6.72;;;;;;;10.46;98.71;101490.22;1027700;28;20055;-54
2023/06/17 02:05:13;;;;;;;9.60;7.13;;;;;;;10.42;98.71;101485.50;1028838;28;20046;-54
2023/06/17 02:05:45;;;;;;;7.38;6.57;;;;;;;10.37;98.56;101487.91;1035810;28;20096;-54
2023/06/17 02:06:17;;;;;;;6.82;5.72;;;;;;;10.33;98.62;101489.34;1036336;28;20045;-52
2023/06/17 02:06:48;;;;;;;10.30;6.70;;;;;;;10.30;99.08;101487.06;1039584;28;20071;-55
2023/06/17 02:07:24;;;;;;;7.57;6.88;;;;;;;10.24;98.92;101482.56;1036355;28;20787;-55
2023/06/17 02:07:59;;;;;;;10.23;6.45;;;;;;;10.24;99.46;101487.88;1035786;28;20057;-55
2023/06/17 02:08:35;;;;;;;8.02;7.22;;;;;;;10.23;99.78;101484.38;1031763;28;20089;-53
2023/06/17 02:09:07;;;;;;;8.15;6.60;;;;;;;10.26;99.60;101488.50;1031579;28;20843;-54
2023/06/17 02:09:38;;;;;;;7.93;6.28;;;;;;;10.36;99.48;101486.28;1033138;28;20038;-53
2023/06/17 02:10:11;;;;;;;7.57;6.88;;;;;;;10.47;99.26;101494.53;1032485;28;20069;-54
2023/06/17 02:10:43;;;;;;;9.45;6.85;;;;;;;10.50;99.37;101487.97;1031526;28;20554;-54
2023/06/17 02:11:15;;;;;;;8.13;7.32;;;;;;;10.49;98.76;101497.00;1031759;28;20587;-55
2023/06/17 02:11:46;;;;;;;9.85;7.38;;;;;;;10.42;98.87;101490.84;1032436;28;20431;-54
2023/06/17 02:12:18;;;;;;;9.63;6.43;;;;;;;10.27;98.76;101488.31;1035969;28;20042;-53
2023/06/17 02:12:50;;;;;;;7.10;6.40;;;;;;;10.42;98.78;101490.84;1035797;28;20100;-54
2023/06/17 02:13:21;;;;;;;9.07;6.85;;;;;;;10.53;98.59;101490.25;1036158;28;20843;-54
2023/06/17 02:13:53;;;;;;;9.55;7.10;;;;;;;10.59;99.04;101486.78;1036212;28;20488;-53
2023/06/17 02:14:24;;;;;;;7.30;6.60;;;;;;;10.66;98.61;101481.47;1035984;28;20293;-54
2023/06/17 02:14:57;;;;;;;9.63;6.32;;;;;;;10.73;98.53;101483.16;1035749;28;20046;-53
2023/06/17 02:15:30;;;;;;;8.43;6.55;;;;;;;10.67;97.37;101483.91;1031941;28;20300;-54
2023/06/17 02:16:02;;;;;;;8.63;7.20;;;;;;;10.62;96.90;101486.38;1031683;28;20173;-54
2023/06/17 02:16:39;;;;;;;7.78;6.43;;;;;;;10.57;96.69;101478.16;1032425;28;20040;-52
2023/06/17 02:17:11;;;;;;;7.85;6.95;;;;;;;10.51;97.24;101489.63;1039191;28;20140;-54
2023/06/17 02:17:43;;;;;;;14.20;6.40;;;;;;;10.45;96.80;101487.75;1035886;28;20316;-51
2023/06/17 02:18:14;;;;;;;6.50;5.82;;;;;;;10.40;96.32;101488.34;1036750;28;20300;-54
2023/06/17 02:18:53;;;;;;;7.50;6.60;;;;;;;10.35;96.89;101489.97;1034765;28;20046;-54
2023/06/17 02:19:28;;;;;;;7.85;6.13;;;;;;;10.30;97.16;101487.06;1032827;28;20837;-54
2023/06/17 02:20:00;;;;;;;8.18;6.85;;;;;;;10.25;96.74;101489.53;1035821;28;20042;-54
2023/06/17 02:20:32;;;;;;;7.93;6.75;;;;;;;10.26;96.82;101485.84;1033196;28;20127;-53
2023/06/17 02:21:05;;;;;;;9.25;6.43;;;;;;;10.27;96.44;101487.47;1031667;28;20042;-53
2023/06/17 02:21:37;;;;;;;7.55;6.43;;;;;;;10.28;97.02;101483.78;1031705;28;20046;-53
2023/06/17 02:22:08;;;;;;;8.18;6.25;;;;;;;10.26;96.83;101496.50;1028564;28;20294;-51
2023/06/17 02:22:40;;;;;;;8.65;6.57;;;;;;;10.22;97.18;101485.41;1025900;28;20098;-53
2023/06/17 02:23:12;;;;;;;7.13;6.07;;;;;;;10.18;96.76;101490.28;1031720;28;20053;-54
2023/06/17 02:23:48;;;;;;;7.85;5.78;;;;;;;10.21;96.47;101484.59;1031977;28;20046;-54
2023/06/17 02:24:23;;;;;;;6.43;5.65;;;;;;;10.31;96.47;101488.72;1031807;28;20775;-53
2023/06/17 02:24:55;;;;;;;7.82;6.32;;;;;;;10.33;95.17;101487.50;1031773;28;20078;-53
2023/06/17 02:25:27;;;;;;;8.60;5.72;;;;;;;10.33;95.42;101486.69;1027671;28;20297;-54
2023/06/17 02:25:59;;;;;;;8.82;7.28;;;;;;;10.27;95.28;101482.16;1028519;28;20397;-54
2023/06/17 02:26:32;;;;;;;6.45;5.47;;;;;;;10.16;95.42;101480.84;1027750;28;20043;-53
2023/06/17 02:27:05;;;;;;;7.15;6.07;;;;;;;10.11;95.93;101489.41;1028250;28;20137;-55
2023/06/17 02:27:37;;;;;;;6.43;5.07;;;;;;;10.09;96.52;101491.44;1031743;28;20058;-54
2023/06/17 02:28:08;;;;;;;7.35;5.88;;;;;;;10.10;96.73;101486.94;1031736;28;20519;-54
2023/06/17 02:28:42;;;;;;;7.57;6.47;;;;;;;10.08;97.09;101489.81;1031963;28;20301;-54
2023/06/17 02:29:13;;;;;;;7.75;6.18;;;;;;;10.02;97.35;101487.13;1025234;28;20121;-54
2023/06/17 02:29:45;;;;;;;7.47;6.25;;;;;;;9.95;97.92;101488.94;1027633;28;20591;-53
2023/06/17 02:30:17;;;;;;;7.55;6.25;;;;;;;9.94;98.59;101484.63;1028301;28;20290;-53
2023/06/17 02:30:49;;;;;;;7.57;6.65;;;;;;;9.80;98.49;101494.34;1028185;28;20831;-53
2023/06/17 02:31:22;;;;;;;6.88;6.18;;;;;;;9.85;99.89;101486.59;1027606;28;20072;-54
2023/06/17 02:31:54;;;;;;;6.97;6.28;;;;;;;9.84;99.07;101492.94;1027259;28;20211;-53
2023/06/17 02:32:27;;;;;;;7.50;6.72;;;;;;;9.84;100.00;101491.09;1024498;28;20307;-54
2023/06/17 02:33:03;;;;;;;6.45;5.80;;;;;;;9.92;100.00;101484.81;1028436;28;20298;-54
2023/06/17 02:33:35;;;;;;;7.53;6.53;;;;;;;9.96;100.00;101486.06;1023958;28;20302;-54
2023/06/17 02:34:07;;;;;;;8.30;7.13;;;;;;;9.84;100.00;101483.13;1024779;28;20817;-51